Astra — PB4187 — position and weather

sailwx.info

Track history (hours):
 
Tides and Currents Weather Stations Pressure Air Temp Water Temp Dewpoint Dewpoint Depression Visibility Wind Speed Wind Dir Waves Ship Positions

Astra

Last reported at 2014-Aug-23 03:34 UTC. Time now 2014-Aug-23 07:34 UTC.
Position N 52°25' E 004°48'.

Length 110 m.

Type: Tanker. MMSI: 244650752.

Date/timePositionNaut miles runAvg speedWind from/ knotsBaromVisibWave heightAir tempDewpointWater temp
2014-Aug-23 03:34N 52°25' E 004°48'0 0.0
2014-Aug-23 02:33N 52°25' E 004°48'0 0.0
2014-Aug-23 01:33N 52°25' E 004°48'0 0.0
2014-Aug-23 00:34N 52°25' E 004°48'0 0.0
2014-Aug-22 23:33N 52°25' E 004°48'0 0.0
2014-Aug-22 22:33N 52°25' E 004°48'0 0.0
2014-Aug-22 21:33N 52°25' E 004°48'0 0.0
2014-Aug-22 20:33N 52°25' E 004°48'0 0.0
2014-Aug-22 19:34N 52°25' E 004°48'0 0.0
2014-Aug-22 18:34N 52°25' E 004°48'0 0.0
2014-Aug-22 17:33N 52°25' E 004°48'0 0.0
2014-Aug-22 16:34N 52°25' E 004°48'0 0.0
2014-Aug-22 15:33N 52°25' E 004°48'0 0.0
2014-Aug-22 14:34N 52°25' E 004°48'0 0.0
2014-Aug-22 13:34N 52°25' E 004°48'0 0.0
2014-Aug-22 12:34N 52°25' E 004°48'0 0.0
2014-Aug-22 11:33N 52°25' E 004°48'0 0.0
2014-Aug-22 10:33N 52°25' E 004°48'0 0.0
2014-Aug-22 09:33N 52°25' E 004°48'0 0.0
2014-Aug-22 08:34N 52°25' E 004°48'0 0.0
2014-Aug-22 07:33N 52°25' E 004°48'0 0.0
2014-Aug-22 06:33N 52°25' E 004°47'0 0.0
2014-Aug-22 05:33N 52°25' E 004°48'0 0.2
2014-Aug-22 04:33N 52°25' E 004°47'0 0.0
2014-Aug-22 03:33N 52°25' E 004°47'0 0.0
2014-Aug-22 02:33N 52°25' E 004°47'0 0.0
2014-Aug-22 01:34N 52°25' E 004°47'0 0.0
2014-Aug-22 00:33N 52°25' E 004°47'0 0.0
2014-Aug-21 23:33N 52°25' E 004°47'0 0.0
2014-Aug-21 22:34N 52°25' E 004°47'0 0.0
2014-Aug-21 21:33N 52°25' E 004°47'0 0.0
2014-Aug-21 20:33N 52°25' E 004°47'0 0.0
2014-Aug-21 19:34N 52°25' E 004°47'5 4.8
2014-Aug-21 18:34N 52°23' E 004°54'8 7.8
2014-Aug-21 17:33N 52°16' E 005°01'9 8.8
2014-Aug-21 16:33N 52°08' E 005°03'9 8.9
2014-Aug-21 15:33N 52°00' E 005°12'6 5.5
2014-Aug-21 14:33N 51°58' E 005°20'6 6.0
2014-Aug-21 13:33N 51°54' E 005°27'3 3.3
2014-Aug-21 12:33N 51°54' E 005°33'0 0.0
2014-Aug-21 11:33N 51°54' E 005°33'0 0.0
2014-Aug-21 10:33N 51°54' E 005°33'0 0.0
2014-Aug-21 09:33N 51°54' E 005°33'0 0.0
2014-Aug-21 08:33N 51°54' E 005°33'0 0.0
2014-Aug-21 07:33N 51°54' E 005°33'0 0.0
2014-Aug-21 06:33N 51°54' E 005°33'0 0.0
2014-Aug-21 05:33N 51°54' E 005°33'0 0.0
2014-Aug-21 04:33N 51°54' E 005°33'0 0.0
2014-Aug-21 03:33N 51°54' E 005°33'0 0.0
2014-Aug-21 02:33N 51°54' E 005°33'0 0.0
2014-Aug-21 01:33N 51°54' E 005°33'0 0.0
2014-Aug-21 00:33N 51°54' E 005°33'6 5.5
2014-Aug-20 23:33N 51°54' E 005°42'1110.0
2014-Aug-20 22:27N 51°52' E 005°59'45 8.3
2014-Aug-20 17:05N 51°16' E 006°42'4 6.6
2014-Aug-20 16:33N 51°13' E 006°44'20 0.5
2014-Aug-18 21:29N 50°55' E 006°58'15 4.5
2014-Aug-18 18:14N 51°09' E 006°49'3 4.4
2014-Aug-18 17:33N 51°11' E 006°46'2 2.4
2014-Aug-18 16:33N 51°13' E 006°46'4 3.9
2014-Aug-18 15:33N 51°16' E 006°42'1 0.0
2014-Aug-16 19:33N 51°18' E 006°43'7 7.4
2014-Aug-16 18:33N 51°11' E 006°48'132 9.2
2014-Aug-16 04:16N 49°14' E 008°23'6 8.1
2014-Aug-16 03:33N 49°19' E 008°29'1010.4
2014-Aug-16 02:33N 49°09' E 008°22'5 5.1
2014-Aug-16 01:33N 49°04' E 008°20'0 0.0
2014-Aug-16 00:33N 49°04' E 008°20'0 0.0
2014-Aug-15 23:33N 49°04' E 008°20'0 0.0
2014-Aug-15 22:34N 49°04' E 008°20'0 0.0
2014-Aug-15 21:34N 49°04' E 008°20'0 0.0
2014-Aug-15 20:33N 49°04' E 008°20'0 0.0
2014-Aug-15 19:33N 49°04' E 008°20'0 0.0
2014-Aug-15 18:33N 49°04' E 008°20'0 0.0
2014-Aug-15 17:34N 49°04' E 008°20'0 0.0
2014-Aug-15 16:34N 49°04' E 008°20'0 0.0
2014-Aug-15 15:33N 49°04' E 008°20'0 0.0
2014-Aug-15 14:34N 49°04' E 008°20'0 0.0
2014-Aug-15 13:33N 49°04' E 008°20'0 0.0
2014-Aug-15 12:33N 49°04' E 008°20'0 0.0
2014-Aug-15 11:33N 49°04' E 008°20'0 0.0
2014-Aug-15 10:34N 49°04' E 008°20'0 0.1
2014-Aug-15 09:33N 49°04' E 008°20'0 0.0
2014-Aug-15 08:34N 49°04' E 008°20'0 0.0
2014-Aug-15 07:34N 49°04' E 008°20'0 0.0
2014-Aug-15 06:33N 49°04' E 008°20'0 0.0
2014-Aug-15 05:34N 49°04' E 008°20'0 0.0
2014-Aug-15 04:34N 49°04' E 008°20'0 0.0
2014-Aug-15 03:34N 49°04' E 008°20'0 0.0
2014-Aug-15 02:34N 49°04' E 008°20'0 0.0
2014-Aug-15 01:33N 49°04' E 008°20'2 1.7
2014-Aug-15 00:34N 49°06' E 008°21'5 4.8
2014-Aug-14 23:33N 49°11' E 008°22'5 4.8
2014-Aug-14 22:34N 49°15' E 008°25'4 4.2
2014-Aug-14 21:34N 49°19' E 008°28'5 4.8
2014-Aug-14 20:25N 49°24' E 008°30'107 4.1
2014-Aug-13 18:07N 50°54' E 006°59'17 3.8
2014-Aug-13 13:33N 51°10' E 006°48'4 4.2
2014-Aug-13 12:34N 51°13' E 006°43'2 2.1
2014-Aug-13 11:27N 51°16' E 006°43'  
Track history (hours):
 
Tides and Currents Weather Stations Pressure Air Temp Water Temp Dewpoint Dewpoint Depression Visibility Wind Speed Wind Dir Waves Ship Positions

Astra

Last reported at 2014-Aug-23 03:34 UTC. Time now 2014-Aug-23 07:34 UTC.
Position N 52°25' E 004°48'.

Length 110 m.

Type: Tanker. MMSI: 244650752.

Date/timePositionNaut miles runAvg speedWind from/ knotsBaromVisibWave heightAir tempDewpointWater temp
2014-Aug-23 03:34N 52°25' E 004°48'0 0.0
2014-Aug-23 02:33N 52°25' E 004°48'0 0.0
2014-Aug-23 01:33N 52°25' E 004°48'0 0.0
2014-Aug-23 00:34N 52°25' E 004°48'0 0.0
2014-Aug-22 23:33N 52°25' E 004°48'0 0.0
2014-Aug-22 22:33N 52°25' E 004°48'0 0.0
2014-Aug-22 21:33N 52°25' E 004°48'0 0.0
2014-Aug-22 20:33N 52°25' E 004°48'0 0.0
2014-Aug-22 19:34N 52°25' E 004°48'0 0.0
2014-Aug-22 18:34N 52°25' E 004°48'0 0.0
2014-Aug-22 17:33N 52°25' E 004°48'0 0.0
2014-Aug-22 16:34N 52°25' E 004°48'0 0.0
2014-Aug-22 15:33N 52°25' E 004°48'0 0.0
2014-Aug-22 14:34N 52°25' E 004°48'0 0.0
2014-Aug-22 13:34N 52°25' E 004°48'0 0.0
2014-Aug-22 12:34N 52°25' E 004°48'0 0.0
2014-Aug-22 11:33N 52°25' E 004°48'0 0.0
2014-Aug-22 10:33N 52°25' E 004°48'0 0.0
2014-Aug-22 09:33N 52°25' E 004°48'0 0.0
2014-Aug-22 08:34N 52°25' E 004°48'0 0.0
2014-Aug-22 07:33N 52°25' E 004°48'0 0.0
2014-Aug-22 06:33N 52°25' E 004°47'0 0.0
2014-Aug-22 05:33N 52°25' E 004°48'0 0.2
2014-Aug-22 04:33N 52°25' E 004°47'0 0.0
2014-Aug-22 03:33N 52°25' E 004°47'0 0.0
2014-Aug-22 02:33N 52°25' E 004°47'0 0.0
2014-Aug-22 01:34N 52°25' E 004°47'0 0.0
2014-Aug-22 00:33N 52°25' E 004°47'0 0.0
2014-Aug-21 23:33N 52°25' E 004°47'0 0.0
2014-Aug-21 22:34N 52°25' E 004°47'0 0.0
2014-Aug-21 21:33N 52°25' E 004°47'0 0.0
2014-Aug-21 20:33N 52°25' E 004°47'0 0.0
2014-Aug-21 19:34N 52°25' E 004°47'5 4.8
2014-Aug-21 18:34N 52°23' E 004°54'8 7.8
2014-Aug-21 17:33N 52°16' E 005°01'9 8.8
2014-Aug-21 16:33N 52°08' E 005°03'9 8.9
2014-Aug-21 15:33N 52°00' E 005°12'6 5.5
2014-Aug-21 14:33N 51°58' E 005°20'6 6.0
2014-Aug-21 13:33N 51°54' E 005°27'3 3.3
2014-Aug-21 12:33N 51°54' E 005°33'0 0.0
2014-Aug-21 11:33N 51°54' E 005°33'0 0.0
2014-Aug-21 10:33N 51°54' E 005°33'0 0.0
2014-Aug-21 09:33N 51°54' E 005°33'0 0.0
2014-Aug-21 08:33N 51°54' E 005°33'0 0.0
2014-Aug-21 07:33N 51°54' E 005°33'0 0.0
2014-Aug-21 06:33N 51°54' E 005°33'0 0.0
2014-Aug-21 05:33N 51°54' E 005°33'0 0.0
2014-Aug-21 04:33N 51°54' E 005°33'0 0.0
2014-Aug-21 03:33N 51°54' E 005°33'0 0.0
2014-Aug-21 02:33N 51°54' E 005°33'0 0.0
2014-Aug-21 01:33N 51°54' E 005°33'0 0.0
2014-Aug-21 00:33N 51°54' E 005°33'6 5.5
2014-Aug-20 23:33N 51°54' E 005°42'1110.0
2014-Aug-20 22:27N 51°52' E 005°59'45 8.3
2014-Aug-20 17:05N 51°16' E 006°42'4 6.6
2014-Aug-20 16:33N 51°13' E 006°44'20 0.5
2014-Aug-18 21:29N 50°55' E 006°58'15 4.5
2014-Aug-18 18:14N 51°09' E 006°49'3 4.4
2014-Aug-18 17:33N 51°11' E 006°46'2 2.4
2014-Aug-18 16:33N 51°13' E 006°46'4 3.9
2014-Aug-18 15:33N 51°16' E 006°42'1 0.0
2014-Aug-16 19:33N 51°18' E 006°43'7 7.4
2014-Aug-16 18:33N 51°11' E 006°48'132 9.2
2014-Aug-16 04:16N 49°14' E 008°23'6 8.1
2014-Aug-16 03:33N 49°19' E 008°29'1010.4
2014-Aug-16 02:33N 49°09' E 008°22'5 5.1
2014-Aug-16 01:33N 49°04' E 008°20'0 0.0
2014-Aug-16 00:33N 49°04' E 008°20'0 0.0
2014-Aug-15 23:33N 49°04' E 008°20'0 0.0
2014-Aug-15 22:34N 49°04' E 008°20'0 0.0
2014-Aug-15 21:34N 49°04' E 008°20'0 0.0
2014-Aug-15 20:33N 49°04' E 008°20'0 0.0
2014-Aug-15 19:33N 49°04' E 008°20'0 0.0
2014-Aug-15 18:33N 49°04' E 008°20'0 0.0
2014-Aug-15 17:34N 49°04' E 008°20'0 0.0
2014-Aug-15 16:34N 49°04' E 008°20'0 0.0
2014-Aug-15 15:33N 49°04' E 008°20'0 0.0
2014-Aug-15 14:34N 49°04' E 008°20'0 0.0
2014-Aug-15 13:33N 49°04' E 008°20'0 0.0
2014-Aug-15 12:33N 49°04' E 008°20'0 0.0
2014-Aug-15 11:33N 49°04' E 008°20'0 0.0
2014-Aug-15 10:34N 49°04' E 008°20'0 0.1
2014-Aug-15 09:33N 49°04' E 008°20'0 0.0
2014-Aug-15 08:34N 49°04' E 008°20'0 0.0
2014-Aug-15 07:34N 49°04' E 008°20'0 0.0
2014-Aug-15 06:33N 49°04' E 008°20'0 0.0
2014-Aug-15 05:34N 49°04' E 008°20'0 0.0
2014-Aug-15 04:34N 49°04' E 008°20'0 0.0
2014-Aug-15 03:34N 49°04' E 008°20'0 0.0
2014-Aug-15 02:34N 49°04' E 008°20'0 0.0
2014-Aug-15 01:33N 49°04' E 008°20'2 1.7
2014-Aug-15 00:34N 49°06' E 008°21'5 4.8
2014-Aug-14 23:33N 49°11' E 008°22'5 4.8
2014-Aug-14 22:34N 49°15' E 008°25'4 4.2
2014-Aug-14 21:34N 49°19' E 008°28'5 4.8
2014-Aug-14 20:25N 49°24' E 008°30'107 4.1
2014-Aug-13 18:07N 50°54' E 006°59'17 3.8
2014-Aug-13 13:33N 51°10' E 006°48'4 4.2
2014-Aug-13 12:34N 51°13' E 006°43'2 2.1
2014-Aug-13 11:27N 51°16' E 006°43'  

Dump ship's entire track history